createdAt,value
2019-06-07T00:00:51.960Z,7.83
2019-06-07T00:03:27.394Z,8.17
2019-06-07T00:05:52.712Z,8.03
2019-06-07T00:08:28.067Z,7.87
2019-06-07T00:10:53.532Z,7.83
2019-06-07T00:13:23.228Z,7.97
2019-06-07T00:15:52.627Z,8.20
2019-06-07T00:18:25.847Z,7.90
2019-06-07T00:20:53.030Z,8.57
2019-06-07T00:23:23.156Z,8.10
2019-06-07T00:25:52.519Z,8.30
2019-06-07T00:28:21.834Z,7.97
2019-06-07T00:30:52.628Z,8.47
2019-06-07T00:33:24.744Z,8.40
2019-06-07T00:35:53.318Z,8.13
2019-06-07T00:38:22.650Z,7.50
2019-06-07T00:40:52.087Z,8.27
2019-06-07T00:43:27.887Z,8.20
2019-06-07T00:45:52.502Z,8.17
2019-06-07T00:48:29.367Z,7.87
2019-06-07T00:50:53.424Z,8.83
2019-06-07T00:53:31.624Z,8.23
2019-06-07T00:55:53.849Z,7.90
2019-06-07T00:58:27.694Z,8.23
2019-06-07T01:00:55.098Z,8.23
2019-06-07T01:03:25.934Z,8.60
2019-06-07T01:05:55.362Z,9.43
2019-06-07T01:08:29.714Z,9.07
2019-06-07T01:10:55.871Z,8.97
2019-06-07T01:13:26.979Z,9.20
2019-06-07T01:15:56.543Z,8.87
2019-06-07T01:18:37.728Z,9.20
2019-06-07T01:20:57.304Z,8.27
2019-06-07T01:25:57.736Z,8.00
2019-06-07T01:28:29.993Z,8.77
2019-06-07T01:30:58.118Z,8.40
2019-06-07T01:33:49.213Z,8.47
2019-06-07T01:35:58.519Z,9.10
2019-06-07T01:38:30.025Z,9.33
2019-06-07T01:40:58.972Z,9.83
2019-06-07T01:43:30.465Z,9.70
2019-06-07T01:45:59.416Z,9.53
2019-06-07T01:48:47.993Z,9.00
2019-06-07T01:50:59.894Z,9.30
2019-06-07T01:53:31.606Z,9.23
2019-06-07T01:56:00.351Z,9.70
2019-06-07T01:58:30.175Z,9.90
2019-06-07T02:00:59.537Z,10.30
2019-06-07T02:03:32.271Z,11.80
2019-06-07T02:06:00.287Z,12.93
2019-06-07T02:08:34.227Z,11.27
2019-06-07T02:11:00.707Z,10.10
2019-06-07T02:13:30.776Z,10.73
2019-06-07T02:16:00.202Z,10.83
2019-06-07T02:18:34.612Z,10.03
2019-06-07T02:21:00.655Z,9.60
2019-06-07T02:23:33.058Z,9.97
2019-06-07T02:26:01.432Z,10.90
2019-06-07T02:28:44.220Z,11.00
2019-06-07T02:31:01.898Z,10.17
2019-06-07T02:33:39.565Z,10.67
2019-06-07T02:36:02.365Z,10.60
2019-06-07T02:38:37.391Z,11.43
2019-06-07T02:41:03.134Z,11.07
2019-06-07T02:43:36.584Z,9.77
2019-06-07T02:46:24.367Z,9.47
2019-06-07T02:48:39.843Z,8.33
2019-06-07T02:51:06.015Z,7.90
2019-06-07T02:53:40.093Z,8.17
2019-06-07T02:58:41.568Z,8.73
2019-06-07T03:01:10.019Z,9.00
2019-06-07T03:03:40.383Z,8.70
2019-06-07T03:06:11.693Z,9.00
2019-06-07T03:08:43.277Z,8.73
2019-06-07T03:11:13.924Z,9.43
2019-06-07T03:13:46.212Z,9.23
2019-06-07T03:16:21.748Z,10.10
2019-06-07T03:19:12.998Z,9.17
2019-06-07T03:21:43.804Z,9.33
2019-06-07T03:24:13.160Z,10.07
2019-06-07T03:29:14.312Z,12.80
2019-06-07T03:31:47.784Z,13.47
2019-06-07T03:34:14.878Z,13.70
2019-06-07T03:36:44.182Z,14.80
2019-06-07T03:39:13.505Z,13.67
2019-06-07T03:42:04.657Z,13.37
2019-06-07T03:44:14.307Z,12.87
2019-06-07T03:46:43.646Z,13.63
2019-06-07T03:49:12.993Z,14.70
2019-06-07T03:51:42.344Z,12.60
2019-06-07T03:54:11.662Z,11.90
2019-06-07T03:56:41.259Z,11.73
2019-06-07T03:59:10.592Z,10.10
2019-06-07T04:01:41.294Z,10.80
2019-06-07T04:04:10.795Z,11.93
2019-06-07T04:06:42.455Z,11.27
2019-06-07T04:09:12.026Z,11.00
2019-06-07T04:11:41.422Z,9.97
2019-06-07T04:14:10.764Z,10.80
2019-06-07T04:16:44.783Z,11.63
2019-06-07T04:19:13.608Z,10.87
2019-06-07T04:21:43.189Z,10.50
2019-06-07T04:24:12.487Z,9.40
2019-06-07T04:26:43.987Z,9.30
2019-06-07T04:31:44.016Z,9.17
2019-06-07T04:34:13.359Z,9.37
2019-06-07T04:36:56.657Z,9.90
2019-06-07T04:39:14.266Z,9.50
2019-06-07T04:41:46.512Z,9.03
2019-06-07T04:44:17.962Z,9.87
2019-06-07T04:46:50.220Z,10.17
2019-06-07T04:49:22.533Z,9.93
2019-06-07T04:51:52.023Z,9.87
2019-06-07T04:54:21.334Z,10.97
2019-06-07T04:56:51.104Z,10.20
2019-06-07T05:00:01.088Z,10.23
2019-06-07T05:01:51.585Z,10.83
2019-06-07T05:04:21.301Z,11.10
2019-06-07T05:06:51.050Z,11.13
2019-06-07T05:09:20.809Z,11.50
2019-06-07T05:11:50.633Z,11.43
2019-06-07T05:14:20.359Z,14.77
2019-06-07T05:16:50.216Z,12.87
2019-06-07T05:19:19.514Z,11.70
2019-06-07T05:22:03.723Z,14.77
2019-06-07T05:24:20.969Z,12.13
2019-06-07T05:26:50.318Z,13.57
2019-06-07T05:29:19.796Z,13.20
2019-06-07T05:31:49.711Z,13.73
2019-06-07T05:34:19.482Z,18.87
2019-06-07T05:37:10.404Z,12.93
2019-06-07T05:39:20.472Z,14.33
2019-06-07T05:41:50.203Z,13.40
2019-06-07T05:44:19.882Z,13.22
2019-06-07T05:46:49.633Z,12.63
2019-06-07T05:49:19.054Z,11.90
2019-06-07T05:51:48.451Z,12.40
2019-06-07T05:54:17.856Z,12.68
2019-06-07T05:56:47.188Z,13.95
2019-06-07T05:59:16.872Z,12.45
2019-06-07T06:01:57.400Z,13.72
2019-06-07T06:04:17.325Z,13.98
2019-06-07T06:06:47.579Z,13.35
2019-06-07T06:09:17.104Z,12.45
2019-06-07T06:11:59.458Z,13.62
2019-06-07T06:14:17.918Z,14.25
2019-06-07T06:16:49.737Z,15.83
2019-06-07T06:19:18.373Z,14.00
2019-06-07T06:21:48.704Z,14.53
2019-06-07T06:24:18.174Z,14.55
2019-06-07T06:26:54.108Z,15.50
2019-06-07T06:29:19.263Z,15.38
2019-06-07T06:32:39.537Z,15.55
2019-06-07T06:34:21.840Z,14.10
2019-06-07T06:36:51.366Z,15.00
2019-06-07T06:39:20.819Z,14.65
2019-06-07T06:42:00.813Z,13.70
2019-06-07T06:44:21.800Z,14.38
2019-06-07T06:46:57.582Z,14.78
2019-06-07T06:49:24.942Z,14.05
2019-06-07T06:51:56.123Z,15.28
2019-06-07T06:54:39.959Z,14.65
2019-06-07T06:57:17.995Z,14.63
2019-06-07T06:59:39.092Z,14.10
2019-06-07T07:02:05.495Z,13.70
2019-06-07T07:04:35.998Z,13.38
2019-06-07T07:07:06.509Z,14.98
2019-06-07T07:09:36.945Z,14.05
2019-06-07T07:12:13.027Z,13.68
2019-06-07T07:14:39.483Z,16.00
2019-06-07T07:17:10.151Z,14.53
2019-06-07T07:19:42.358Z,15.88
2019-06-07T07:22:13.329Z,14.47
2019-06-07T07:24:44.497Z,14.70
2019-06-07T07:27:14.973Z,15.70
2019-06-07T07:29:49.913Z,16.97
2019-06-07T07:32:18.650Z,15.25
2019-06-07T07:34:52.666Z,16.55
2019-06-07T07:37:21.393Z,16.82
2019-06-07T07:40:00.884Z,15.45
2019-06-07T07:42:24.592Z,14.85
2019-06-07T07:44:56.671Z,17.02
2019-06-07T07:47:26.105Z,16.85
2019-06-07T07:49:59.061Z,14.23
2019-06-07T07:52:27.970Z,16.73
2019-06-07T07:54:58.569Z,16.17
2019-06-07T07:57:29.038Z,13.62
2019-06-07T08:00:36.266Z,11.75
2019-06-07T08:02:30.053Z,12.55
2019-06-07T08:05:21.014Z,10.70
2019-06-07T08:07:32.477Z,11.15
2019-06-07T08:10:04.070Z,9.73
2019-06-07T08:12:55.519Z,11.10
2019-06-07T08:15:05.740Z,12.05
2019-06-07T08:17:35.220Z,10.48
2019-06-07T08:20:04.978Z,10.90
2019-06-07T08:22:36.305Z,9.83
2019-06-07T08:25:07.002Z,10.25
2019-06-07T08:27:37.328Z,8.90
2019-06-07T08:30:46.418Z,7.60
2019-06-07T08:32:40.974Z,8.75
2019-06-07T08:36:02.377Z,8.50
2019-06-07T08:40:20.285Z,7.35
2019-06-07T08:43:10.727Z,7.92
2019-06-07T08:45:25.232Z,8.15
2019-06-07T08:47:57.976Z,7.40
2019-06-07T08:50:29.616Z,7.50
2019-06-07T08:53:10.914Z,8.70
2019-06-07T08:55:33.226Z,7.30
2019-06-07T08:58:08.090Z,7.22
2019-06-07T09:00:46.191Z,9.80
2019-06-07T09:03:07.699Z,7.30
2019-06-07T09:05:38.028Z,7.90
2019-06-07T09:08:28.524Z,6.90
2019-06-07T09:10:39.233Z,7.35
2019-06-07T09:13:11.813Z,7.70
2019-06-07T09:15:40.366Z,7.60
2019-06-07T09:18:39.975Z,7.87
2019-06-07T09:20:48.158Z,7.65
2019-06-07T09:23:18.473Z,6.47
2019-06-07T09:25:57.564Z,6.75
2019-06-07T09:28:20.899Z,6.03
2019-06-07T09:30:51.204Z,5.90
2019-06-07T09:33:20.554Z,6.90
2019-06-07T09:35:50.288Z,6.50
2019-06-07T09:38:25.503Z,6.17
2019-06-07T09:40:51.516Z,6.10
2019-06-07T09:45:52.591Z,5.15
2019-06-07T09:49:09.193Z,7.53
2019-06-07T09:50:53.701Z,6.08
2019-06-07T09:53:23.724Z,5.83
2019-06-07T09:55:53.192Z,4.70
2019-06-07T10:00:54.848Z,6.05
2019-06-07T10:03:24.567Z,5.40
2019-06-07T10:05:54.748Z,5.10
2019-06-07T10:09:42.620Z,5.40
2019-06-07T10:10:56.014Z,5.80
2019-06-07T10:13:25.685Z,6.55
2019-06-07T10:15:55.192Z,5.25
2019-06-07T10:18:24.970Z,7.40
2019-06-07T10:20:54.694Z,6.87
2019-06-07T10:23:24.885Z,5.67
2019-06-07T10:25:55.078Z,5.37
2019-06-07T10:28:24.632Z,6.25
2019-06-07T23:13:46.254Z,8.77
2019-06-07T23:16:15.821Z,8.97
2019-06-07T23:18:45.191Z,9.60
2019-06-07T23:21:15.819Z,9.37
2019-06-07T23:23:45.682Z,9.80
2019-06-07T23:26:16.052Z,9.60
2019-06-07T23:28:45.782Z,9.60
2019-06-07T23:31:15.102Z,9.13
2019-06-07T23:33:44.436Z,9.20
2019-06-07T23:36:15.081Z,9.50
2019-06-07T23:38:44.488Z,9.53
2019-06-07T23:41:13.865Z,9.27
2019-06-07T23:43:43.202Z,9.37
2019-06-07T23:46:13.426Z,9.73
2019-06-07T23:48:42.773Z,9.53
2019-06-07T23:51:13.527Z,9.77
2019-06-07T23:53:42.974Z,9.77
2019-06-07T23:56:13.790Z,9.33
2019-06-07T23:58:43.206Z,10.00
